Time;durP1;ratioP1;P1;durP2;ratioP2;P2;SDS_P1;SDS_P2;PMS_P1;PMS_P2;Temp;Humidity;BMP_temperature;BMP_pressure;BME280_temperature;BME280_humidity;BME280_pressure;Samples;Min_cycle;Max_cycle;Signal;HPM_P1;HPM_P2
2024/02/21 00:02:12;;;;;;;10.73;4.90;;;7.60;77.10;;;;;;5057086;28;20638;-72
2024/02/21 00:04:38;;;;;;;10.13;5.30;;;7.50;77.30;;;;;;5059109;28;20229;-74
2024/02/21 00:07:05;;;;;;;11.67;5.67;;;7.60;77.30;;;;;;5064398;28;20183;-73
2024/02/21 00:09:31;;;;;;;9.30;5.00;;;7.60;77.30;;;;;;5068065;28;20430;-72
2024/02/21 00:11:57;;;;;;;13.43;6.03;;;7.60;77.30;;;;;;5060286;28;20477;-72
2024/02/21 00:14:22;;;;;;;10.53;5.20;;;7.60;77.00;;;;;;5059397;28;20184;-73
2024/02/21 00:16:48;;;;;;;11.83;5.60;;;7.70;76.80;;;;;;5061394;28;20438;-72
2024/02/21 00:19:14;;;;;;;14.50;5.83;;;7.70;76.70;;;;;;5064446;28;20187;-71
2024/02/21 00:21:40;;;;;;;12.60;5.23;;;7.70;76.70;;;;;;5057208;28;20224;-72
2024/02/21 00:24:06;;;;;;;9.63;5.07;;;7.70;76.80;;;;;;5060932;28;20445;-72
2024/02/21 00:26:31;;;;;;;13.10;4.83;;;7.70;76.80;;;;;;5062384;28;20188;-72
2024/02/21 00:28:57;;;;;;;13.57;5.77;;;7.70;77.10;;;;;;5064325;28;20684;-71
2024/02/21 00:31:23;;;;;;;11.90;5.50;;;7.80;76.50;;;;;;5058835;28;20272;-72
2024/02/21 00:33:48;;;;;;;11.27;5.20;;;7.80;76.40;;;;;;5072552;28;20705;-73
2024/02/21 00:36:15;;;;;;;9.47;4.30;;;7.90;75.90;;;;;;5062748;28;20215;-72
2024/02/21 00:38:40;;;;;;;10.43;4.67;;;7.90;75.90;;;;;;5064365;28;20179;-73
2024/02/21 00:41:06;;;;;;;12.43;5.60;;;7.90;75.80;;;;;;5058870;28;20489;-72
2024/02/21 00:43:31;;;;;;;15.63;4.73;;;7.80;75.90;;;;;;5060210;28;20172;-72
2024/02/21 00:45:57;;;;;;;9.20;4.73;;;7.80;76.20;;;;;;5058727;28;20252;-72
2024/02/21 00:48:23;;;;;;;14.60;6.07;;;7.80;76.20;;;;;;5063447;28;20185;-73
2024/02/21 00:50:48;;;;;;;12.40;4.67;;;7.80;76.20;;;;;;5058956;28;20207;-72
2024/02/21 00:53:14;;;;;;;8.97;4.93;;;7.70;76.40;;;;;;5067285;28;20214;-71
2024/02/21 00:55:40;;;;;;;11.60;5.13;;;7.80;76.40;;;;;;5066376;28;20262;-73
2024/02/21 00:58:05;;;;;;;8.83;4.50;;;7.80;76.10;;;;;;5062874;28;20195;-71
2024/02/21 01:00:31;;;;;;;12.83;5.23;;;7.70;75.90;;;;;;5058218;28;20212;-73
2024/02/21 01:02:57;;;;;;;16.17;5.13;;;7.80;75.90;;;;;;5071906;28;20210;-71
2024/02/21 01:05:23;;;;;;;15.80;4.33;;;7.70;75.80;;;;;;5065376;28;20427;-73
2024/02/21 01:07:48;;;;;;;10.80;4.60;;;7.70;75.90;;;;;;5066834;28;20179;-70
2024/02/21 01:10:14;;;;;;;13.93;5.40;;;7.70;76.10;;;;;;5062604;28;20184;-74
2024/02/21 01:12:39;;;;;;;13.80;4.47;;;7.70;76.10;;;;;;5059332;28;20284;-72
2024/02/21 01:15:05;;;;;;;14.80;4.80;;;7.60;76.20;;;;;;5069926;28;20286;-71
2024/02/21 01:17:31;;;;;;;11.20;4.70;;;7.60;76.50;;;;;;5059865;28;20707;-73
2024/02/21 01:19:56;;;;;;;14.30;4.70;;;7.60;76.40;;;;;;5067116;28;20188;-71
2024/02/21 01:22:22;;;;;;;9.80;4.70;;;7.60;76.40;;;;;;5057083;28;20238;-72
2024/02/21 01:24:47;;;;;;;11.27;4.63;;;7.60;76.50;;;;;;5066549;28;20184;-73
2024/02/21 01:27:13;;;;;;;11.00;4.70;;;7.60;76.50;;;;;;5058783;28;20227;-71
2024/02/21 01:29:39;;;;;;;15.33;5.10;;;7.70;76.70;;;;;;5064825;28;20320;-71
2024/02/21 01:32:04;;;;;;;8.83;4.27;;;7.70;76.50;;;;;;5059068;28;20218;-70
2024/02/21 01:34:30;;;;;;;10.83;3.97;;;7.60;76.70;;;;;;5069212;28;20188;-71
2024/02/21 01:36:56;;;;;;;6.67;4.17;;;7.60;77.00;;;;;;5055434;28;20585;-71
2024/02/21 01:39:21;;;;;;;11.97;5.13;;;7.70;77.00;;;;;;5065736;28;20210;-72
2024/02/21 01:41:47;;;;;;;16.30;4.37;;;7.70;77.00;;;;;;5063119;28;20220;-73
2024/02/21 01:44:13;;;;;;;10.57;4.63;;;7.80;76.50;;;;;;5065429;28;20249;-72
2024/02/21 01:46:39;;;;;;;13.40;5.00;;;7.80;76.20;;;;;;5064339;28;20225;-71
2024/02/21 01:49:05;;;;;;;17.37;4.70;;;7.70;75.90;;;;;;5062987;28;20463;-71
2024/02/21 01:51:30;;;;;;;12.90;5.20;;;7.80;75.90;;;;;;5061746;28;21585;-71
2024/02/21 01:53:57;;;;;;;13.70;4.67;;;7.80;75.50;;;;;;5063282;28;20268;-70
2024/02/21 01:56:24;;;;;;;11.93;4.80;;;7.80;75.50;;;;;;5056838;28;20188;-71
2024/02/21 01:58:50;;;;;;;13.13;5.37;;;7.60;75.90;;;;;;5064675;28;20490;-72
2024/02/21 02:01:16;;;;;;;9.60;4.30;;;7.60;75.90;;;;;;5056651;28;20493;-71
2024/02/21 02:03:44;;;;;;;13.30;4.83;;;7.60;76.40;;;;;;5062937;28;20807;-71
2024/02/21 02:06:10;;;;;;;9.37;5.13;;;7.70;76.50;;;;;;5059335;28;20937;-73
2024/02/21 02:08:36;;;;;;;14.63;4.77;;;7.60;76.50;;;;;;5056654;28;20426;-74
2024/02/21 02:11:02;;;;;;;12.50;4.13;;;7.70;76.10;;;;;;5057491;28;20690;-73
2024/02/21 02:13:27;;;;;;;13.50;5.10;;;7.70;75.90;;;;;;5065907;28;20215;-73
2024/02/21 02:15:53;;;;;;;7.13;3.90;;;7.70;75.50;;;;;;5065104;28;20205;-71
2024/02/21 02:18:19;;;;;;;27.30;4.50;;;7.80;75.20;;;;;;5068572;28;20200;-71
2024/02/21 02:20:46;;;;;;;12.90;4.40;;;7.80;74.60;;;;;;5052529;28;20216;-72
2024/02/21 02:23:26;;;;;;;6.67;4.20;;;7.80;74.90;;;;;;5069140;28;20523;-71
2024/02/21 02:25:52;;;;;;;7.77;4.13;;;7.70;74.80;;;;;;5066083;28;20544;-71
2024/02/21 02:28:19;;;;;;;9.23;4.70;;;7.70;75.40;;;;;;5065739;28;20897;-72
2024/02/21 02:30:44;;;;;;;12.93;5.20;;;7.70;74.80;;;;;;5062762;28;20476;-71
2024/02/21 02:33:10;;;;;;;11.53;4.00;;;7.80;74.50;;;;;;5068570;28;20411;-73
2024/02/21 02:35:36;;;;;;;10.97;4.10;;;7.80;74.00;;;;;;5076237;28;20711;-71
2024/02/21 02:38:03;;;;;;;8.63;3.90;;;7.80;73.60;;;;;;5075820;28;20202;-72
2024/02/21 02:40:29;;;;;;;16.23;4.13;;;7.70;74.20;;;;;;5068402;28;20687;-71
2024/02/21 02:42:55;;;;;;;13.00;4.90;;;7.70;74.80;;;;;;5061396;28;21103;-71
2024/02/21 02:45:26;;;;;;;9.63;4.60;;;7.70;74.00;;;;;;5065573;28;20216;-71
2024/02/21 02:47:54;;;;;;;9.97;3.63;;;7.70;73.70;;;;;;5061893;28;20636;-72
2024/02/21 02:50:19;;;;;;;10.93;3.60;;;7.70;74.20;;;;;;5062018;28;20461;-71
2024/02/21 02:52:45;;;;;;;8.03;3.67;;;7.70;74.50;;;;;;5066056;28;20457;-70
2024/02/21 02:55:11;;;;;;;8.40;3.33;;;7.60;74.50;;;;;;5064285;28;20181;-71
2024/02/21 02:57:36;;;;;;;9.83;4.43;;;7.60;74.60;;;;;;5061494;28;20712;-70
2024/02/21 03:00:02;;;;;;;7.00;3.70;;;7.60;75.20;;;;;;5063316;28;20177;-73
2024/02/21 03:02:28;;;;;;;9.30;3.70;;;7.60;75.20;;;;;;5061613;28;20227;-71
2024/02/21 03:04:54;;;;;;;11.30;4.30;;;7.60;75.50;;;;;;5065569;28;20415;-72
2024/02/21 03:07:20;;;;;;;9.53;4.20;;;7.70;75.10;;;;;;5066569;28;20562;-71
2024/02/21 03:09:45;;;;;;;8.83;3.80;;;7.70;75.50;;;;;;5063496;28;20203;-72
2024/02/21 03:12:12;;;;;;;10.13;4.00;;;7.70;75.70;;;;;;5062635;28;20475;-72
2024/02/21 03:14:37;;;;;;;8.97;3.77;;;7.70;75.80;;;;;;5058697;28;20175;-73
2024/02/21 03:17:04;;;;;;;12.00;4.20;;;7.70;75.90;;;;;;5070723;28;20433;-72
2024/02/21 03:19:30;;;;;;;8.63;4.30;;;7.60;76.40;;;;;;5065070;28;20189;-72
2024/02/21 03:21:56;;;;;;;13.80;5.00;;;7.60;77.00;;;;;;5061104;28;20466;-72
2024/02/21 03:24:21;;;;;;;9.87;4.77;;;7.70;77.10;;;;;;5065578;28;20183;-72
2024/02/21 03:26:49;;;;;;;8.27;3.67;;;7.60;77.10;;;;;;5064471;28;20422;-72
2024/02/21 03:29:16;;;;;;;7.30;4.20;;;7.60;76.80;;;;;;5062416;28;20443;-73
2024/02/21 03:31:42;;;;;;;7.97;4.10;;;7.60;76.70;;;;;;5060945;28;20465;-72
2024/02/21 03:34:08;;;;;;;8.43;4.10;;;7.60;77.30;;;;;;5056667;28;20514;-72
2024/02/21 03:36:34;;;;;;;11.87;4.33;;;7.50;77.10;;;;;;5070208;28;20496;-71
2024/02/21 03:38:59;;;;;;;11.97;5.50;;;7.40;77.40;;;;;;5061740;28;20210;-72
2024/02/21 03:41:25;;;;;;;15.03;4.23;;;7.30;77.70;;;;;;5063414;28;20475;-71
2024/02/21 03:43:51;;;;;;;9.80;4.10;;;7.30;77.80;;;;;;5056552;28;20233;-72
2024/02/21 03:46:16;;;;;;;11.10;4.20;;;7.20;77.60;;;;;;5064977;28;20179;-74
2024/02/21 03:48:42;;;;;;;13.30;4.67;;;7.30;77.40;;;;;;5060689;28;20187;-72
2024/02/21 03:51:08;;;;;;;7.37;3.40;;;7.30;77.30;;;;;;5059473;28;20287;-73
2024/02/21 03:53:34;;;;;;;9.93;4.00;;;7.40;77.30;;;;;;5059059;28;20180;-71
2024/02/21 03:56:03;;;;;;;14.33;4.30;;;7.50;76.40;;;;;;5063940;28;20422;-71
2024/02/21 03:58:30;;;;;;;10.70;3.40;;;7.40;76.70;;;;;;5060855;28;20177;-71
2024/02/21 04:00:55;;;;;;;8.20;4.10;;;7.50;77.30;;;;;;5064310;28;20950;-72
2024/02/21 04:03:21;;;;;;;10.33;4.20;;;7.50;77.00;;;;;;5069685;28;20434;-72
2024/02/21 04:05:46;;;;;;;7.30;4.13;;;7.60;77.10;;;;;;5066191;28;20239;-71
2024/02/21 04:08:12;;;;;;;9.17;4.30;;;7.70;76.70;;;;;;5068931;28;20180;-71
2024/02/21 04:10:38;;;;;;;8.43;3.63;;;7.70;75.50;;;;;;5064279;28;20215;-72
2024/02/21 04:13:06;;;;;;;13.90;4.00;;;7.60;75.50;;;;;;5062992;28;20609;-71
2024/02/21 04:15:31;;;;;;;10.30;4.67;;;7.60;75.50;;;;;;5065203;28;20192;-72
2024/02/21 04:17:57;;;;;;;13.03;4.50;;;7.60;75.70;;;;;;5063677;28;20835;-70
2024/02/21 04:20:23;;;;;;;8.10;3.93;;;7.60;75.20;;;;;;5057559;28;20180;-73
2024/02/21 04:22:49;;;;;;;12.33;4.63;;;7.50;75.80;;;;;;5066443;28;20257;-71
2024/02/21 04:25:14;;;;;;;7.40;3.70;;;7.60;75.80;;;;;;5064484;28;20313;-71
2024/02/21 04:27:40;;;;;;;8.57;3.80;;;7.50;75.10;;;;;;5063884;28;20438;-72
2024/02/21 04:30:07;;;;;;;6.00;3.47;;;7.50;74.80;;;;;;5059889;28;20291;-71
2024/02/21 04:32:33;;;;;;;9.07;4.07;;;7.50;75.10;;;;;;5063290;28;20877;-72
2024/02/21 04:34:58;;;;;;;9.97;3.83;;;7.40;74.90;;;;;;5068995;28;20474;-71
2024/02/21 04:37:24;;;;;;;17.57;4.07;;;7.40;74.50;;;;;;5065692;28;20180;-71
2024/02/21 04:39:50;;;;;;;8.43;4.13;;;7.40;74.00;;;;;;5063307;28;20295;-73
2024/02/21 04:42:16;;;;;;;10.10;3.70;;;7.30;74.30;;;;;;5060234;28;20280;-72
2024/02/21 04:44:41;;;;;;;12.57;3.40;;;7.30;74.60;;;;;;5058861;28;20522;-71
2024/02/21 04:47:07;;;;;;;8.93;3.80;;;7.40;74.30;;;;;;5062010;28;20216;-71
2024/02/21 04:49:33;;;;;;;9.53;3.60;;;7.30;74.30;;;;;;5061843;28;20179;-71
2024/02/21 04:51:59;;;;;;;11.70;4.17;;;7.30;74.60;;;;;;5062429;28;20498;-72
2024/02/21 04:54:25;;;;;;;9.40;3.83;;;7.30;73.90;;;;;;5062713;28;20423;-72
2024/02/21 04:56:51;;;;;;;9.27;3.73;;;7.20;74.30;;;;;;5065587;28;20469;-71
2024/02/21 04:59:17;;;;;;;8.77;4.00;;;7.10;75.20;;;;;;5057435;28;20314;-73
2024/02/21 05:01:42;;;;;;;10.53;4.30;;;7.10;75.80;;;;;;5068913;28;20478;-70
2024/02/21 05:04:08;;;;;;;14.43;3.60;;;7.00;76.40;;;;;;5064126;28;20182;-71
2024/02/21 05:06:40;;;;;;;7.30;3.53;;;7.10;76.40;;;;;;5066764;28;20187;-72
2024/02/21 05:09:06;;;;;;;11.23;3.67;;;7.00;76.70;;;;;;5062907;28;20192;-72
2024/02/21 05:11:32;;;;;;;7.90;3.47;;;7.00;76.80;;;;;;5060001;28;20470;-71
2024/02/21 05:13:58;;;;;;;8.83;4.00;;;7.00;76.70;;;;;;5058660;28;20422;-71
2024/02/21 05:16:23;;;;;;;7.40;3.70;;;7.00;76.50;;;;;;5060086;28;20183;-71
2024/02/21 05:18:49;;;;;;;8.60;3.87;;;6.90;76.50;;;;;;5065406;28;20729;-73
2024/02/21 05:21:15;;;;;;;8.97;4.37;;;7.00;76.50;;;;;;5070906;28;20218;-71
2024/02/21 05:23:40;;;;;;;6.60;3.80;;;7.10;75.90;;;;;;5062420;28;20186;-72
2024/02/21 05:26:06;;;;;;;11.40;4.57;;;7.00;75.80;;;;;;5058999;28;20423;-72
2024/02/21 05:28:32;;;;;;;5.83;3.50;;;7.00;76.10;;;;;;5062636;28;20184;-71
2024/02/21 05:30:59;;;;;;;6.80;3.27;;;7.00;75.90;;;;;;5060539;28;20553;-73
2024/02/21 05:33:25;;;;;;;6.73;3.60;;;7.10;74.30;;;;;;5066129;28;20218;-71
2024/02/21 05:35:51;;;;;;;14.30;4.57;;;7.10;73.50;;;;;;5060135;28;20458;-70
2024/02/21 05:38:16;;;;;;;6.53;3.30;;;7.20;73.00;;;;;;5066770;28;20679;-73
2024/02/21 05:40:42;;;;;;;5.77;2.80;;;7.20;72.70;;;;;;5056646;28;20204;-71
2024/02/21 05:43:08;;;;;;;9.33;3.07;;;7.20;72.90;;;;;;5063879;28;20214;-72
2024/02/21 05:45:34;;;;;;;5.30;2.63;;;7.20;72.60;;;;;;5059512;28;20176;-71
2024/02/21 05:48:00;;;;;;;9.83;3.23;;;7.20;72.40;;;;;;5064276;28;20423;-72
2024/02/21 05:50:26;;;;;;;9.50;3.60;;;7.30;72.30;;;;;;5057335;28;21001;-72
2024/02/21 05:52:54;;;;;;;7.13;2.67;;;7.30;72.10;;;;;;5064627;28;20830;-72
2024/02/21 05:55:19;;;;;;;13.40;3.20;;;7.30;71.40;;;;;;5063164;28;20430;-71
2024/02/21 05:57:45;;;;;;;6.20;2.93;;;7.40;71.70;;;;;;5071733;28;21034;-72
2024/02/21 06:00:11;;;;;;;8.50;3.43;;;7.30;71.60;;;;;;5060583;28;20267;-72
2024/02/21 06:02:36;;;;;;;4.30;2.70;;;7.30;72.30;;;;;;5062456;28;20249;-73
2024/02/21 06:05:02;;;;;;;7.80;3.70;;;7.40;72.30;;;;;;5067542;28;20450;-73
2024/02/21 06:07:28;;;;;;;9.90;3.63;;;7.30;72.60;;;;;;5064621;28;20184;-72
2024/02/21 06:09:53;;;;;;;5.93;3.30;;;7.30;72.70;;;;;;5059486;28;20676;-71
2024/02/21 06:12:19;;;;;;;9.50;3.17;;;7.20;73.00;;;;;;5063604;28;20724;-71
2024/02/21 06:14:45;;;;;;;10.57;3.40;;;7.10;73.60;;;;;;5060092;28;20188;-72
2024/02/21 06:17:11;;;;;;;8.20;3.63;;;7.00;74.00;;;;;;5059651;28;20192;-73
2024/02/21 06:19:40;;;;;;;7.67;4.27;;;6.90;74.80;;;;;;5068000;28;20614;-72
2024/02/21 06:22:07;;;;;;;14.37;3.73;;;6.70;75.40;;;;;;5060732;28;20479;-72
2024/02/21 06:24:34;;;;;;;13.00;3.80;;;6.70;74.90;;;;;;5065783;28;20791;-71
2024/02/21 06:26:59;;;;;;;8.33;4.23;;;6.70;74.60;;;;;;5060133;28;21280;-74
2024/02/21 06:29:25;;;;;;;6.23;2.77;;;6.80;74.00;;;;;;5063479;28;20435;-73
2024/02/21 06:31:50;;;;;;;11.07;3.10;;;6.80;73.70;;;;;;5064387;28;20894;-72
2024/02/21 06:34:16;;;;;;;11.43;3.50;;;6.80;73.20;;;;;;5066630;28;20192;-73
2024/02/21 06:36:42;;;;;;;8.07;2.97;;;6.90;73.60;;;;;;5063229;28;20192;-74
2024/02/21 06:39:08;;;;;;;7.03;3.57;;;6.90;73.70;;;;;;5063873;28;20473;-70
2024/02/21 06:41:34;;;;;;;5.60;2.90;;;6.90;73.70;;;;;;5060776;28;20211;-73
2024/02/21 06:43:59;;;;;;;7.07;3.53;;;6.90;73.90;;;;;;5067390;28;20193;-73
2024/02/21 06:46:28;;;;;;;14.50;3.70;;;6.80;74.50;;;;;;5063449;28;20418;-73
2024/02/21 06:48:56;;;;;;;8.47;3.63;;;6.80;74.60;;;;;;5062426;28;20643;-73
2024/02/21 06:51:23;;;;;;;7.23;3.23;;;6.70;74.50;;;;;;5062451;28;20988;-73
2024/02/21 06:53:48;;;;;;;8.20;3.57;;;6.70;74.50;;;;;;5066202;28;20430;-73
2024/02/21 06:56:14;;;;;;;8.30;2.67;;;6.70;74.20;;;;;;5055520;28;20415;-72
2024/02/21 06:58:40;;;;;;;7.07;3.23;;;6.80;73.90;;;;;;5066531;28;20183;-72
2024/02/21 07:01:06;;;;;;;7.00;2.97;;;6.90;73.00;;;;;;5060281;28;20478;-72
2024/02/21 07:03:32;;;;;;;11.97;3.77;;;7.00;72.90;;;;;;5067539;28;20184;-74
2024/02/21 07:05:57;;;;;;;20.87;5.27;;;7.10;72.40;;;;;;5069631;28;20429;-71
2024/02/21 07:08:23;;;;;;;18.93;4.20;;;7.10;72.30;;;;;;5068280;28;20261;-72
2024/02/21 07:10:48;;;;;;;9.93;3.50;;;7.20;72.10;;;;;;5065912;28;20212;-72
2024/02/21 07:13:15;;;;;;;13.13;4.13;;;7.20;72.40;;;;;;5073572;28;20279;-71
2024/02/21 07:15:41;;;;;;;11.90;3.40;;;7.20;72.30;;;;;;5069236;28;20676;-71
2024/02/21 07:18:07;;;;;;;10.03;3.50;;;7.30;72.10;;;;;;5076978;28;20467;-71
2024/02/21 07:20:33;;;;;;;9.93;3.80;;;7.30;72.10;;;;;;5064442;28;20494;-72
2024/02/21 07:22:59;;;;;;;9.33;3.50;;;7.30;72.10;;;;;;5073705;28;20204;-73
2024/02/21 07:25:25;;;;;;;14.73;4.57;;;7.30;72.30;;;;;;5067346;28;20422;-70
2024/02/21 07:27:50;;;;;;;30.00;5.90;;;7.40;71.80;;;;;;5068277;28;20454;-72
2024/02/21 07:30:16;;;;;;;6.77;3.60;;;7.40;71.80;;;;;;5070329;28;20190;-72
2024/02/21 07:32:42;;;;;;;11.50;3.77;;;7.40;71.80;;;;;;5066481;28;20200;-71
2024/02/21 07:35:11;;;;;;;8.47;3.30;;;7.50;71.60;;;;;;5076724;28;20192;-70
2024/02/21 07:37:37;;;;;;;4.00;2.77;;;7.50;71.80;;;;;;5071443;28;20188;-72
2024/02/21 07:40:07;;;;;;;13.50;3.30;;;7.50;71.70;;;;;;5072047;28;20417;-70
2024/02/21 07:42:32;;;;;;;7.87;3.30;;;7.50;71.30;;;;;;5058597;28;20482;-72
2024/02/21 07:44:58;;;;;;;10.23;3.50;;;7.60;71.30;;;;;;5069481;28;20922;-70
2024/02/21 07:47:24;;;;;;;5.60;3.07;;;7.70;71.10;;;;;;5060335;28;20199;-72
2024/02/21 07:49:50;;;;;;;7.77;3.30;;;7.80;70.80;;;;;;5065754;28;20547;-72
2024/02/21 07:52:15;;;;;;;9.20;3.40;;;7.90;70.70;;;;;;5064557;28;20834;-73
2024/02/21 07:54:41;;;;;;;4.23;2.63;;;7.90;70.50;;;;;;5069580;28;20593;-72
2024/02/21 07:57:10;;;;;;;7.53;3.60;;;8.00;70.40;;;;;;5062869;28;20179;-71
2024/02/21 07:59:35;;;;;;;7.03;3.30;;;8.00;69.90;;;;;;5065891;28;20195;-71
2024/02/21 08:02:02;;;;;;;11.60;4.00;;;8.10;69.90;;;;;;5068227;28;20478;-72
2024/02/21 08:04:28;;;;;;;42.23;5.07;;;8.10;69.80;;;;;;5073009;28;20190;-71
2024/02/21 08:06:56;;;;;;;10.83;3.43;;;8.10;69.80;;;;;;5062289;28;20439;-72
2024/02/21 08:09:23;;;;;;;16.40;3.60;;;8.10;69.90;;;;;;5066202;28;20279;-71
2024/02/21 08:11:49;;;;;;;8.90;3.27;;;8.10;70.10;;;;;;5059751;28;20466;-71
2024/02/21 08:14:16;;;;;;;10.70;4.33;;;8.20;69.90;;;;;;5065144;28;20416;-72
2024/02/21 08:16:42;;;;;;;10.87;3.30;;;8.20;70.10;;;;;;5065544;28;20418;-72
2024/02/21 08:19:08;;;;;;;9.60;4.17;;;8.20;70.20;;;;;;5067553;28;20861;-71
2024/02/21 08:21:33;;;;;;;18.70;4.47;;;8.40;69.80;;;;;;5069251;28;20523;-73
2024/02/21 08:23:59;;;;;;;9.63;3.53;;;8.50;69.70;;;;;;5062276;28;20419;-72
2024/02/21 08:26:28;;;;;;;14.60;4.70;;;8.60;69.40;;;;;;5063737;28;20181;-73
2024/02/21 08:28:53;;;;;;;12.80;3.70;;;8.70;69.40;;;;;;5067023;28;20185;-71
2024/02/21 08:31:20;;;;;;;5.20;3.30;;;8.70;68.90;;;;;;5064837;28;20465;-72
2024/02/21 08:33:45;;;;;;;9.87;3.60;;;8.70;69.10;;;;;;5066606;28;20177;-72
2024/02/21 08:36:20;;;;;;;11.60;4.20;;;8.60;69.20;;;;;;5069032;28;21173;-73
2024/02/21 08:38:46;;;;;;;6.63;3.33;;;8.60;69.40;;;;;;5058069;28;20188;-72
2024/02/21 08:41:12;;;;;;;10.77;4.00;;;8.60;69.40;;;;;;5067015;28;21088;-74
2024/02/21 08:43:37;;;;;;;7.13;3.30;;;8.60;69.50;;;;;;5063809;28;20439;-72
2024/02/21 08:46:04;;;;;;;8.20;3.70;;;8.70;69.20;;;;;;5071662;28;20512;-73
2024/02/21 08:48:29;;;;;;;8.80;3.30;;;8.80;69.20;;;;;;5064391;28;20192;-73
2024/02/21 08:50:55;;;;;;;8.80;3.77;;;9.00;69.10;;;;;;5065675;28;20442;-73
2024/02/21 08:53:20;;;;;;;9.00;3.73;;;9.10;68.20;;;;;;5061795;28;20176;-73
2024/02/21 08:55:46;;;;;;;14.57;4.23;;;9.10;67.90;;;;;;5067317;28;20180;-71
2024/02/21 08:58:12;;;;;;;11.20;4.50;;;9.10;67.90;;;;;;5060077;28;20185;-73
2024/02/21 09:00:37;;;;;;;8.63;3.57;;;9.20;67.90;;;;;;5062894;28;20325;-71
2024/02/21 09:03:03;;;;;;;9.77;3.17;;;9.20;67.60;;;;;;5065958;28;20203;-71
2024/02/21 09:05:29;;;;;;;6.30;2.80;;;9.20;67.60;;;;;;5066854;28;20187;-72
2024/02/21 09:07:55;;;;;;;9.47;3.33;;;9.30;67.30;;;;;;5066088;28;20448;-73
2024/02/21 09:10:21;;;;;;;7.10;3.17;;;9.30;67.50;;;;;;5064710;28;20651;-72
2024/02/21 09:12:47;;;;;;;15.70;4.63;;;9.30;67.30;;;;;;5063140;28;20594;-70
2024/02/21 09:15:13;;;;;;;11.03;3.20;;;9.30;67.30;;;;;;5063837;28;20423;-70
2024/02/21 09:17:39;;;;;;;8.47;3.47;;;9.30;67.20;;;;;;5062512;28;20520;-70
2024/02/21 09:20:06;;;;;;;7.17;3.80;;;9.30;67.60;;;;;;5066711;28;20205;-70
2024/02/21 09:22:34;;;;;;;4.90;2.93;;;9.30;67.20;;;;;;5061915;28;20482;-72
2024/02/21 09:25:00;;;;;;;6.70;3.10;;;9.30;67.30;;;;;;5062754;28;20536;-73
2024/02/21 09:27:25;;;;;;;6.40;3.40;;;9.40;66.30;;;;;;5062478;28;20416;-72
2024/02/21 09:29:51;;;;;;;6.23;2.83;;;9.40;66.60;;;;;;5064882;28;21140;-72
2024/02/21 09:32:19;;;;;;;9.03;3.20;;;9.50;66.70;;;;;;5067065;28;20591;-71
2024/02/21 09:34:45;;;;;;;6.83;3.20;;;9.50;66.00;;;;;;5061143;28;20627;-73
2024/02/21 09:37:11;;;;;;;7.43;3.10;;;9.60;66.30;;;;;;5067694;28;20427;-73
2024/02/21 09:39:36;;;;;;;6.97;2.60;;;9.70;66.00;;;;;;5065846;28;20425;-72
2024/02/21 09:42:07;;;;;;;12.43;3.30;;;9.80;65.80;;;;;;5063981;28;20261;-72
2024/02/21 09:44:39;;;;;;;6.17;2.97;;;9.80;65.40;;;;;;5061371;28;20240;-72
2024/02/21 09:47:10;;;;;;;8.43;3.43;;;9.80;65.30;;;;;;5062333;28;20423;-72
2024/02/21 09:49:37;;;;;;;6.73;2.67;;;9.90;65.60;;;;;;5061986;28;20419;-72
2024/02/21 09:52:07;;;;;;;5.67;3.00;;;9.90;64.80;;;;;;5059324;28;20569;-72
2024/02/21 09:54:33;;;;;;;6.30;3.23;;;10.00;64.80;;;;;;5063232;28;20419;-73
2024/02/21 09:57:03;;;;;;;12.00;3.20;;;10.10;64.70;;;;;;5065301;28;21281;-73
2024/02/21 09:59:31;;;;;;;6.67;2.90;;;10.10;64.40;;;;;;5058077;28;20425;-73
2024/02/21 10:01:59;;;;;;;8.03;3.30;;;10.10;64.10;;;;;;5068362;28;20470;-72
2024/02/21 10:04:25;;;;;;;8.07;3.10;;;10.10;64.20;;;;;;5064218;28;20451;-72
2024/02/21 10:06:50;;;;;;;8.67;3.43;;;10.20;64.40;;;;;;5065227;28;20484;-72
2024/02/21 10:09:27;;;;;;;7.37;2.90;;;10.40;64.20;;;;;;5062672;28;20223;-71
2024/02/21 10:11:54;;;;;;;7.83;2.70;;;10.50;63.80;;;;;;5063239;28;20547;-72
2024/02/21 10:14:20;;;;;;;12.97;3.97;;;10.70;63.90;;;;;;5060237;28;20426;-71
2024/02/21 10:16:56;;;;;;;5.17;2.67;;;10.90;63.80;;;;;;5060016;28;20415;-71
2024/02/21 10:19:21;;;;;;;6.07;2.80;;;10.90;63.40;;;;;;5060581;28;20187;-71
2024/02/21 10:22:04;;;;;;;6.23;2.80;;;10.80;63.50;;;;;;5060868;28;20462;-74
2024/02/21 10:24:32;;;;;;;7.60;3.17;;;10.80;63.80;;;;;;5068127;28;20192;-72
2024/02/21 10:27:03;;;;;;;7.03;2.60;;;11.00;63.70;;;;;;5055382;28;20438;-71
2024/02/21 10:29:32;;;;;;;7.17;2.93;;;11.20;63.20;;;;;;5066076;28;20434;-73
2024/02/21 10:32:13;;;;;;;7.80;2.47;;;11.30;63.10;;;;;;5061103;28;20463;-72
2024/02/21 10:34:41;;;;;;;8.17;3.10;;;11.30;62.80;;;;;;5065040;28;20807;-73
2024/02/21 10:37:08;;;;;;;8.17;3.30;;;11.40;62.90;;;;;;5065509;28;20486;-72
2024/02/21 10:39:36;;;;;;;6.13;2.63;;;11.40;62.90;;;;;;5063796;28;20483;-73
2024/02/21 10:42:05;;;;;;;11.83;2.97;;;11.60;62.90;;;;;;5061856;28;20470;-73
2024/02/21 10:44:37;;;;;;;3.70;2.20;;;11.70;61.90;;;;;;5067808;28;20413;-73
2024/02/21 10:47:08;;;;;;;8.47;2.77;;;11.70;61.50;;;;;;5069212;28;20444;-72
2024/02/21 10:49:40;;;;;;;7.90;2.50;;;11.70;61.70;;;;;;5075827;28;20504;-72
2024/02/21 10:52:15;;;;;;;8.33;3.30;;;11.80;61.60;;;;;;5066986;28;20536;-73
2024/02/21 10:55:02;;;;;;;8.40;2.40;;;11.90;61.60;;;;;;5070493;28;20415;-72
2024/02/21 10:57:29;;;;;;;8.13;2.70;;;12.00;61.60;;;;;;5064508;28;20453;-73
2024/02/21 10:59:58;;;;;;;6.30;2.93;;;12.00;61.00;;;;;;5062427;28;20419;-72
2024/02/21 11:02:24;;;;;;;8.20;2.90;;;12.20;61.50;;;;;;5069876;28;20507;-71
2024/02/21 11:04:52;;;;;;;8.67;2.90;;;12.30;60.70;;;;;;5059172;28;20800;-72
2024/02/21 11:07:19;;;;;;;7.60;2.20;;;12.10;60.90;;;;;;5067188;28;20541;-72
2024/02/21 11:09:55;;;;;;;5.90;2.53;;;12.20;61.30;;;;;;5064069;28;20452;-73
2024/02/21 11:12:21;;;;;;;4.00;2.30;;;12.10;60.90;;;;;;5065231;28;20462;-72
2024/02/21 11:14:47;;;;;;;6.00;2.40;;;12.20;60.30;;;;;;5059827;28;21372;-72
2024/02/21 11:17:21;;;;;;;6.80;2.30;;;12.30;60.40;;;;;;5065811;28;20427;-71
2024/02/21 11:19:47;;;;;;;6.00;2.67;;;12.30;60.30;;;;;;5062716;28;20652;-71
2024/02/21 11:22:17;;;;;;;5.53;2.27;;;12.30;60.00;;;;;;5060722;28;20467;-72
2024/02/21 11:24:43;;;;;;;4.60;2.70;;;12.40;60.00;;;;;;5072279;28;20403;-72
2024/02/21 11:27:13;;;;;;;5.83;3.00;;;12.40;59.90;;;;;;5063831;28;20415;-70
2024/02/21 11:29:45;;;;;;;3.40;2.53;;;12.40;60.00;;;;;;5064880;28;20202;-72
2024/02/21 11:32:12;;;;;;;10.57;2.87;;;12.40;59.60;;;;;;5061400;28;20473;-74
2024/02/21 11:34:39;;;;;;;5.60;2.63;;;12.30;59.30;;;;;;5071354;28;20457;-72
2024/02/21 11:37:17;;;;;;;7.40;2.03;;;12.40;59.70;;;;;;5061686;28;20431;-71
2024/02/21 11:39:42;;;;;;;7.57;2.40;;;12.60;59.30;;;;;;5073034;28;20441;-71
2024/02/21 11:42:09;;;;;;;4.57;2.13;;;12.80;58.90;;;;;;5057227;28;20470;-73
2024/02/21 11:44:38;;;;;;;6.27;2.30;;;12.90;58.10;;;;;;5076147;28;20172;-72
2024/02/21 11:47:04;;;;;;;5.40;1.80;;;13.00;57.80;;;;;;5060587;28;20484;-73
2024/02/21 11:49:30;;;;;;;2.70;2.00;;;13.00;57.30;;;;;;5067668;28;20427;-70
2024/02/21 11:52:01;;;;;;;9.80;2.10;;;13.00;57.30;;;;;;5064019;28;20481;-72
2024/02/21 11:54:27;;;;;;;5.70;2.60;;;13.00;56.90;;;;;;5065321;28;20419;-73
2024/02/21 11:56:53;;;;;;;2.90;1.80;;;13.00;56.40;;;;;;5063486;28;20436;-71
2024/02/21 11:59:19;;;;;;;6.13;2.13;;;12.80;56.10;;;;;;5069723;28;20407;-71
2024/02/21 12:01:45;;;;;;;5.97;2.10;;;12.80;56.80;;;;;;5064856;28;20481;-72
2024/02/21 12:04:11;;;;;;;4.20;2.00;;;12.90;55.80;;;;;;5077068;28;20254;-72
2024/02/21 12:06:36;;;;;;;3.83;1.70;;;12.90;55.20;;;;;;5065089;28;20223;-72
2024/02/21 12:09:02;;;;;;;6.77;2.20;;;12.90;55.40;;;;;;5064573;28;20211;-72
2024/02/21 12:11:27;;;;;;;6.23;2.47;;;12.90;55.80;;;;;;5066682;28;20279;-71
2024/02/21 12:14:04;;;;;;;5.10;2.00;;;13.00;55.20;;;;;;5064583;28;20180;-72
2024/02/21 12:16:32;;;;;;;6.00;1.90;;;13.00;54.60;;;;;;5069031;28;20190;-73
2024/02/21 12:18:58;;;;;;;7.70;2.50;;;13.10;54.80;;;;;;5063771;28;20794;-72
2024/02/21 12:21:30;;;;;;;4.73;2.37;;;13.10;54.80;;;;;;5060391;28;20848;-73
2024/02/21 12:23:56;;;;;;;3.73;1.90;;;13.20;54.50;;;;;;5063318;28;20415;-74
2024/02/21 12:26:22;;;;;;;5.00;1.80;;;13.30;54.00;;;;;;5070779;28;20422;-73
2024/02/21 12:28:48;;;;;;;9.50;2.20;;;13.30;52.90;;;;;;5066461;28;20226;-72
2024/02/21 12:31:14;;;;;;;8.10;2.50;;;13.40;52.50;;;;;;5061818;28;21002;-73
2024/02/21 12:33:40;;;;;;;6.40;2.50;;;13.50;51.30;;;;;;5067013;28;20177;-71
2024/02/21 12:36:05;;;;;;;5.70;2.57;;;13.60;52.10;;;;;;5063337;28;20264;-73
2024/02/21 12:38:31;;;;;;;3.50;1.57;;;13.80;52.10;;;;;;5058231;28;20566;-74
2024/02/21 12:40:57;;;;;;;6.60;2.30;;;13.90;50.10;;;;;;5064589;28;20204;-71
2024/02/21 12:43:23;;;;;;;5.30;2.13;;;13.90;49.40;;;;;;5058713;28;20189;-71
2024/02/21 12:45:49;;;;;;;8.37;2.13;;;13.80;49.40;;;;;;5064614;28;20731;-73
2024/02/21 12:48:14;;;;;;;3.50;1.50;;;13.70;50.20;;;;;;5056545;28;20427;-73